Time;durP1;ratioP1;P1;durP2;ratioP2;P2;SDS_P1;SDS_P2;PMS_P1;PMS_P2;Temp;Humidity;BMP_temperature;BMP_pressure;BME280_temperature;BME280_humidity;BME280_pressure;Samples;Min_cycle;Max_cycle;Signal;HPM_P1;HPM_P2
2022/01/17 00:00:18;;;;;;;61.80;39.97;;;;;;;4.44;97.30;103031.03;5025655;28;20041;-77
2022/01/17 00:02:45;;;;;;;72.72;39.55;;;;;;;4.42;97.21;103032.63;5030287;28;20455;-77
2022/01/17 00:05:11;;;;;;;63.97;38.03;;;;;;;4.44;97.66;103045.69;5012962;28;20047;-76
2022/01/17 00:07:37;;;;;;;61.60;37.42;;;;;;;4.44;97.27;103050.88;5026565;28;20103;-77
2022/01/17 00:10:04;;;;;;;60.25;37.72;;;;;;;4.45;97.25;103043.19;5028858;28;20028;-77
2022/01/17 00:12:33;;;;;;;61.63;35.78;;;;;;;4.46;97.60;103057.94;5026774;28;20278;-76
2022/01/17 00:15:01;;;;;;;54.83;35.80;;;;;;;4.44;97.34;103059.59;5025715;28;20056;-76
2022/01/17 00:17:36;;;;;;;60.85;37.72;;;;;;;4.43;97.53;103052.59;5014058;28;20429;-76
2022/01/17 00:20:10;;;;;;;70.68;38.10;;;;;;;4.44;97.53;103062.19;5024057;28;20051;-76
2022/01/17 00:22:36;;;;;;;57.05;31.88;;;;;;;4.44;97.61;103059.59;5010066;28;20480;-76
2022/01/17 00:25:03;;;;;;;49.53;31.77;;;;;;;4.45;97.39;103066.56;5023065;28;20032;-77
2022/01/17 00:27:28;;;;;;;59.78;31.85;;;;;;;4.47;97.49;103066.66;5026367;28;20833;-76
2022/01/17 00:29:54;;;;;;;64.32;32.65;;;;;;;4.48;97.41;103045.94;4997313;28;20168;-77
2022/01/17 00:32:19;;;;;;;72.68;34.08;;;;;;;4.48;97.49;103045.03;4994109;28;20040;-76
2022/01/17 00:34:46;;;;;;;45.20;32.25;;;;;;;4.48;97.29;103040.75;5016914;28;20036;-77
2022/01/17 00:37:12;;;;;;;51.20;32.15;;;;;;;4.47;97.29;103049.34;4996961;28;20033;-75
2022/01/17 00:39:37;;;;;;;56.70;32.70;;;;;;;4.46;97.16;103044.09;5025326;28;20029;-77
2022/01/17 00:42:03;;;;;;;52.47;31.38;;;;;;;4.46;97.26;103052.75;5026779;28;20013;-77
2022/01/17 00:44:28;;;;;;;48.92;29.20;;;;;;;4.46;97.12;103051.88;4996432;28;20036;-77
2022/01/17 00:46:54;;;;;;;50.47;30.08;;;;;;;4.46;97.00;103050.16;5038818;28;20031;-76
2022/01/17 00:49:19;;;;;;;51.28;31.27;;;;;;;4.47;97.18;103051.94;5024346;28;20036;-76
2022/01/17 00:51:46;;;;;;;45.25;29.00;;;;;;;4.47;97.19;103053.66;5010943;28;21392;-77
2022/01/17 00:54:12;;;;;;;48.95;28.77;;;;;;;4.48;97.27;103051.13;4993422;28;20033;-76
2022/01/17 00:56:37;;;;;;;50.80;30.10;;;;;;;4.47;96.95;103064.94;5024744;28;20086;-77
2022/01/17 00:59:03;;;;;;;53.83;31.42;;;;;;;4.47;97.14;103054.53;5011216;28;20631;-77
2022/01/17 01:01:28;;;;;;;50.70;32.42;;;;;;;4.47;97.22;103059.72;5008913;28;20033;-77
2022/01/17 01:03:54;;;;;;;48.90;28.85;;;;;;;4.48;97.23;103065.81;5014326;28;20032;-75
2022/01/17 01:06:19;;;;;;;46.45;29.65;;;;;;;4.48;97.37;103064.13;4999710;28;20087;-76
2022/01/17 01:08:44;;;;;;;47.70;29.33;;;;;;;4.48;97.32;103071.91;5011566;28;20873;-76
2022/01/17 01:11:10;;;;;;;50.83;29.30;;;;;;;4.48;97.26;103068.41;4994980;28;20374;-76
2022/01/17 01:13:36;;;;;;;47.50;28.50;;;;;;;4.49;97.14;103077.97;5031074;28;20385;-77
2022/01/17 01:21:42;;;;;;;42.17;27.73;;;;;;;4.49;96.97;103075.38;5040690;28;20702;-76
2022/01/17 01:29:22;;;;;;;38.83;24.85;;;;;;;4.48;96.50;103066.72;5031353;28;20037;-77
2022/01/17 01:31:53;;;;;;;43.30;24.60;;;;;;;4.49;96.60;103063.28;5006115;28;20429;-77
2022/01/17 01:34:27;;;;;;;35.70;22.63;;;;;;;4.49;96.57;103062.41;5031130;28;20024;-77
2022/01/17 01:36:52;;;;;;;44.22;25.35;;;;;;;4.50;96.69;103069.38;5015009;28;20080;-77
2022/01/17 01:39:23;;;;;;;45.78;23.52;;;;;;;4.49;96.56;103071.06;4998993;28;20057;-77
2022/01/17 01:41:48;;;;;;;;;;;;;;;4.53;96.70;103074.72;5015006;28;20112;-76
2022/01/17 01:44:18;;;;;;;36.90;21.13;;;;;;;4.49;96.59;103078.84;5030706;28;19917;-77
2022/01/17 01:46:44;;;;;;;40.58;20.02;;;;;;;4.49;96.73;103091.84;5035943;28;20386;-76
2022/01/17 01:49:11;;;;;;;41.53;21.48;;;;;;;4.49;96.02;103081.47;5030492;28;20025;-77
2022/01/17 01:51:37;;;;;;;37.13;20.38;;;;;;;4.51;95.85;103085.03;5011792;28;20118;-77
2022/01/17 01:54:03;;;;;;;37.60;21.85;;;;;;;4.51;96.27;103081.53;5038606;28;20025;-77
2022/01/17 01:56:29;;;;;;;28.35;19.63;;;;;;;4.53;96.09;103061.75;5031967;28;20089;-77
2022/01/17 01:58:55;;;;;;;51.88;21.42;;;;;;;4.53;96.08;103066.06;5030970;28;20053;-77
2022/01/17 02:01:20;;;;;;;48.47;21.05;;;;;;;4.51;96.22;103072.06;5012180;28;20071;-77
2022/01/17 02:03:46;;;;;;;31.40;20.55;;;;;;;4.47;96.54;103077.91;4993536;28;20029;-77
2022/01/17 02:06:11;;;;;;;31.15;19.83;;;;;;;4.44;96.23;103079.44;5008118;28;20029;-77
2022/01/17 02:08:36;;;;;;;32.80;19.52;;;;;;;4.36;95.62;103080.78;5015480;28;20037;-77
2022/01/17 02:11:02;;;;;;;28.00;18.95;;;;;;;4.28;95.79;103085.59;5013571;28;20041;-76
2022/01/17 02:13:28;;;;;;;31.02;18.60;;;;;;;4.22;95.71;103082.69;4998050;28;20405;-77
2022/01/17 02:16:01;;;;;;;28.23;17.52;;;;;;;4.14;95.32;103071.94;5028569;28;20025;-76
2022/01/17 02:18:30;;;;;;;25.27;17.42;;;;;;;4.09;95.62;103091.56;5028878;28;20052;-76
2022/01/17 02:21:33;;;;;;;36.97;18.02;;;;;;;4.01;95.15;103085.97;5030600;28;20473;-77
2022/01/17 02:23:51;;;;;;;33.42;16.83;;;;;;;3.92;95.14;103082.91;5034196;28;20036;-76
2022/01/17 02:26:18;;;;;;;26.65;16.50;;;;;;;3.85;95.04;103079.13;5025231;28;20425;-77
2022/01/17 02:28:49;;;;;;;30.92;15.98;;;;;;;3.76;94.49;103087.28;5012464;28;20041;-76
2022/01/17 02:31:15;;;;;;;32.65;17.10;;;;;;;3.69;94.70;103077.41;5025999;28;20041;-76
2022/01/17 02:33:41;;;;;;;30.05;16.30;;;;;;;3.60;94.55;103084.69;5027665;28;20545;-77
2022/01/17 02:36:07;;;;;;;29.80;15.52;;;;;;;3.53;94.82;103077.41;5013879;28;20041;-76
2022/01/17 02:38:33;;;;;;;27.88;16.45;;;;;;;3.45;94.80;103090.84;5026023;28;20029;-76
2022/01/17 02:40:58;;;;;;;35.80;16.70;;;;;;;3.40;94.79;103086.22;5014926;28;20489;-77
2022/01/17 02:43:27;;;;;;;42.45;16.98;;;;;;;3.33;95.34;103087.59;5007856;28;20060;-76
2022/01/17 02:48:26;;;;;;;29.65;16.67;;;;;;;3.19;94.66;103080.75;5036139;28;20031;-76
2022/01/17 02:50:53;;;;;;;27.23;14.43;;;;;;;3.11;95.22;103078.66;5026753;28;20029;-76
2022/01/17 02:53:19;;;;;;;29.70;16.13;;;;;;;3.07;94.99;103087.06;5014548;28;20052;-77
2022/01/17 02:55:59;;;;;;;29.23;15.98;;;;;;;3.01;95.33;103089.31;5029362;28;20067;-77
2022/01/17 02:58:27;;;;;;;29.42;15.48;;;;;;;2.96;95.09;103098.53;5029092;28;20123;-77
2022/01/17 03:00:55;;;;;;;24.50;14.35;;;;;;;2.91;95.36;103090.50;5028455;28;20068;-78
2022/01/17 03:03:23;;;;;;;33.42;14.57;;;;;;;2.87;95.09;103085.06;5036596;28;20037;-77
2022/01/17 03:05:49;;;;;;;21.33;14.63;;;;;;;2.82;95.03;103081.34;5032140;28;20021;-76
2022/01/17 03:08:16;;;;;;;20.80;13.88;;;;;;;2.79;95.49;103074.28;5033770;28;20037;-77
2022/01/17 03:10:43;;;;;;;23.33;13.80;;;;;;;2.75;95.58;103077.50;5047000;28;20556;-77
2022/01/17 03:13:13;;;;;;;22.85;13.20;;;;;;;2.75;95.30;103082.69;5015506;28;20393;-77
2022/01/17 03:15:40;;;;;;;24.63;13.70;;;;;;;2.73;96.04;103080.00;5029394;28;20075;-77
2022/01/17 03:18:07;;;;;;;25.83;13.20;;;;;;;2.73;95.85;103069.66;4994016;28;20041;-76
2022/01/17 03:20:42;;;;;;;22.55;11.82;;;;;;;2.72;95.46;103065.28;5038883;28;20028;-77
2022/01/17 03:23:09;;;;;;;26.42;13.88;;;;;;;2.70;96.04;103069.50;5033778;28;20037;-77
2022/01/17 03:25:34;;;;;;;23.33;13.23;;;;;;;2.72;95.67;103083.41;5019068;28;20044;-77
2022/01/17 03:28:00;;;;;;;21.17;13.27;;;;;;;2.66;95.89;103083.06;5018899;28;20032;-76
2022/01/17 03:30:28;;;;;;;23.35;13.63;;;;;;;2.63;95.60;103079.38;5030377;28;20033;-76
2022/01/17 03:32:54;;;;;;;27.65;13.15;;;;;;;2.61;95.77;103081.91;5034762;28;20143;-77
2022/01/17 03:35:21;;;;;;;24.52;14.32;;;;;;;2.59;95.95;103091.28;5016548;28;20481;-77
2022/01/17 03:37:46;;;;;;;21.65;13.48;;;;;;;2.62;95.84;103085.41;5018065;28;20036;-76
2022/01/17 03:40:13;;;;;;;25.42;12.23;;;;;;;2.60;96.17;103087.88;5017653;28;20481;-77
2022/01/17 03:42:39;;;;;;;30.50;15.68;;;;;;;2.63;96.10;103088.06;5017167;28;20155;-77
2022/01/17 03:45:10;;;;;;;25.20;14.50;;;;;;;2.62;96.46;103088.88;5034165;28;20037;-76
2022/01/17 03:47:41;;;;;;;28.05;13.73;;;;;;;2.62;95.99;103086.28;5018162;28;20373;-77
2022/01/17 03:50:11;;;;;;;40.22;16.10;;;;;;;2.60;96.48;103095.63;5016403;28;20116;-76
2022/01/17 03:52:37;;;;;;;28.15;15.38;;;;;;;2.58;96.44;103086.91;5042391;28;20033;-76
2022/01/17 03:55:03;;;;;;;29.42;14.07;;;;;;;2.52;96.06;103078.78;5030120;28;20492;-77
2022/01/17 03:57:28;;;;;;;26.05;13.52;;;;;;;2.48;95.73;103077.72;5017960;28;20055;-75
2022/01/17 03:59:54;;;;;;;31.13;13.68;;;;;;;2.42;95.49;103080.84;5016580;28;20489;-75
2022/01/17 04:02:19;;;;;;;22.17;12.30;;;;;;;2.35;96.40;103083.88;5028797;28;20546;-75
2022/01/17 04:04:45;;;;;;;32.90;13.40;;;;;;;2.29;95.66;103077.47;4997819;28;20512;-75
2022/01/17 04:07:10;;;;;;;22.42;13.05;;;;;;;2.24;95.67;103084.94;4995883;28;20486;-75
2022/01/17 04:09:35;;;;;;;23.02;11.05;;;;;;;2.20;95.97;103081.28;5023926;28;20033;-76
2022/01/17 04:12:01;;;;;;;15.23;11.68;;;;;;;2.17;95.95;103095.72;5034160;28;20111;-76
2022/01/17 04:14:27;;;;;;;20.80;11.77;;;;;;;2.18;96.04;103092.34;5017242;28;20493;-75
2022/01/17 04:16:52;;;;;;;25.23;12.98;;;;;;;2.15;95.50;103092.16;5003239;28;20033;-76
2022/01/17 04:19:19;;;;;;;24.88;11.70;;;;;;;2.16;96.27;103093.97;5014724;28;20545;-76
2022/01/17 04:21:47;;;;;;;31.20;11.27;;;;;;;2.14;96.21;103093.88;5005659;28;20057;-76
2022/01/17 04:24:14;;;;;;;23.88;12.25;;;;;;;2.16;96.43;103104.31;5015507;28;20554;-75
2022/01/17 04:26:39;;;;;;;20.42;10.35;;;;;;;2.16;96.35;103097.44;5031734;28;20029;-76
2022/01/17 04:29:05;;;;;;;22.55;11.23;;;;;;;2.14;96.00;103106.81;5016417;28;20040;-75
2022/01/17 04:31:31;;;;;;;18.08;9.93;;;;;;;2.12;96.64;103102.34;5015801;28;20378;-76
2022/01/17 04:33:57;;;;;;;18.58;10.93;;;;;;;2.13;96.59;103105.00;5033635;28;20025;-76
2022/01/17 04:36:22;;;;;;;29.63;9.82;;;;;;;2.12;96.87;103099.75;5000334;28;20090;-75
2022/01/17 04:38:48;;;;;;;18.73;8.35;;;;;;;2.07;96.49;103092.59;5045344;28;20037;-74
2022/01/17 04:41:16;;;;;;;14.15;8.93;;;;;;;2.08;96.79;103101.25;5013106;28;20041;-76
2022/01/17 04:46:10;;;;;;;19.33;9.00;;;;;;;2.05;96.42;103094.22;5051917;28;20033;-76
2022/01/17 04:48:37;;;;;;;25.27;8.32;;;;;;;2.04;96.42;103091.53;5045977;28;20083;-76
2022/01/17 04:51:03;;;;;;;19.67;7.88;;;;;;;2.05;96.63;103083.88;4998973;28;20034;-76
2022/01/17 04:53:29;;;;;;;13.27;6.80;;;;;;;2.07;96.45;103090.03;5031935;28;20456;-76
2022/01/17 04:55:55;;;;;;;13.38;7.43;;;;;;;2.02;96.88;103100.91;5042970;28;20120;-76
2022/01/17 04:58:23;;;;;;;15.20;7.40;;;;;;;2.02;96.88;103106.94;4999332;28;20572;-76
2022/01/17 05:00:49;;;;;;;18.88;7.95;;;;;;;2.03;96.81;103129.44;5027904;28;20045;-76
2022/01/17 05:03:17;;;;;;;19.42;8.85;;;;;;;2.04;96.50;103126.06;5048921;28;20044;-76
2022/01/17 05:05:43;;;;;;;14.80;7.60;;;;;;;2.11;96.83;103123.81;5030998;28;20033;-76
2022/01/17 05:08:09;;;;;;;17.13;7.07;;;;;;;2.11;96.60;103122.13;5030658;28;20106;-77
2022/01/17 05:10:35;;;;;;;15.32;6.65;;;;;;;2.13;97.46;103135.19;5030745;28;20493;-76
2022/01/17 05:13:00;;;;;;;13.05;7.70;;;;;;;2.16;97.50;103140.53;5031987;28;20451;-77
2022/01/17 05:15:35;;;;;;;17.95;7.85;;;;;;;2.19;97.10;103141.59;4999815;28;20037;-77
2022/01/17 05:20:39;;;;;;;16.50;7.25;;;;;;;2.28;97.46;103133.47;5048133;28;20032;-76
2022/01/17 05:23:05;;;;;;;19.83;7.75;;;;;;;2.30;96.98;103142.25;5057954;28;20032;-77
2022/01/17 05:25:31;;;;;;;24.40;8.25;;;;;;;2.34;97.72;103135.53;5031718;28;20381;-77
2022/01/17 05:27:58;;;;;;;14.60;6.70;;;;;;;2.37;97.37;103139.22;5028817;28;20064;-76
2022/01/17 05:30:26;;;;;;;20.33;7.07;;;;;;;2.40;97.41;103141.97;5016033;28;20130;-77
2022/01/17 05:32:53;;;;;;;20.58;6.75;;;;;;;2.41;97.16;103141.19;5030753;28;20523;-76
2022/01/17 05:35:19;;;;;;;17.65;6.72;;;;;;;2.44;96.92;103137.84;5030933;28;20083;-76
2022/01/17 05:37:46;;;;;;;13.95;7.00;;;;;;;2.45;96.92;103143.94;5048959;28;20723;-76
2022/01/17 05:40:16;;;;;;;17.90;7.10;;;;;;;2.41;97.24;103143.78;5015821;28;20055;-76
2022/01/17 05:42:42;;;;;;;16.55;6.20;;;;;;;2.38;96.27;103159.09;5030424;28;20444;-76
2022/01/17 05:45:09;;;;;;;18.67;6.63;;;;;;;2.32;96.94;103148.38;5015178;28;20047;-76
2022/01/17 05:47:35;;;;;;;11.38;6.30;;;;;;;2.28;95.79;103143.81;5016036;28;20037;-76
2022/01/17 05:50:03;;;;;;;18.23;7.13;;;;;;;2.21;95.95;103149.44;5014573;28;20043;-76
2022/01/17 05:52:32;;;;;;;16.08;7.60;;;;;;;2.15;95.67;103144.78;5025402;28;20393;-76
2022/01/17 05:54:58;;;;;;;14.55;7.05;;;;;;;2.11;96.06;103139.34;5036224;28;20026;-76
2022/01/17 05:57:24;;;;;;;12.07;5.97;;;;;;;2.04;95.72;103132.91;5014992;28;20239;-77
2022/01/17 05:59:50;;;;;;;14.15;6.22;;;;;;;2.00;96.02;103137.00;5017436;28;20145;-76
2022/01/17 06:02:18;;;;;;;13.30;6.68;;;;;;;1.96;96.14;103154.84;5003212;28;20481;-76
2022/01/17 06:04:44;;;;;;;11.32;6.75;;;;;;;1.91;96.23;103151.94;5001234;28;20039;-77
2022/01/17 06:07:11;;;;;;;17.02;7.50;;;;;;;1.89;96.08;103151.84;5001911;28;20037;-76
2022/01/17 06:09:37;;;;;;;14.45;7.45;;;;;;;1.87;96.41;103147.41;5029325;28;20477;-77
2022/01/17 06:12:08;;;;;;;16.15;7.85;;;;;;;1.86;96.27;103149.09;5006344;28;20047;-76
2022/01/17 06:14:34;;;;;;;14.52;8.38;;;;;;;1.84;95.84;103157.56;5015796;28;20036;-75
2022/01/17 06:16:59;;;;;;;17.40;8.63;;;;;;;1.82;96.42;103164.31;5015709;28;20079;-76
2022/01/17 06:19:25;;;;;;;17.42;8.35;;;;;;;1.84;96.56;103165.31;5030958;28;20037;-76
2022/01/17 06:21:50;;;;;;;14.50;7.85;;;;;;;1.81;96.33;103152.19;5015892;28;20029;-76
2022/01/17 06:24:16;;;;;;;15.13;7.60;;;;;;;1.76;96.01;103151.91;5031174;28;20033;-76
2022/01/17 06:26:45;;;;;;;13.75;6.97;;;;;;;1.75;96.63;103152.72;4998973;28;20163;-76
2022/01/17 06:29:13;;;;;;;18.55;8.55;;;;;;;1.73;96.83;103149.16;5013838;28;20504;-76
2022/01/17 06:31:39;;;;;;;23.25;9.40;;;;;;;1.70;96.66;103161.88;5031705;28;20033;-76
2022/01/17 06:34:05;;;;;;;21.73;9.07;;;;;;;1.67;96.40;103159.13;5003550;28;20484;-75
2022/01/17 06:36:31;;;;;;;25.25;8.95;;;;;;;1.65;96.26;103165.88;5034866;28;20033;-75
2022/01/17 06:38:56;;;;;;;16.77;11.90;;;;;;;1.65;96.78;103165.88;5018539;28;20052;-76
2022/01/17 06:41:21;;;;;;;22.42;10.63;;;;;;;1.66;96.97;103163.38;5018575;28;20039;-75
2022/01/17 06:43:47;;;;;;;17.48;10.48;;;;;;;1.65;97.15;103173.63;5018108;28;20040;-76
2022/01/17 06:46:14;;;;;;;21.38;11.55;;;;;;;1.65;96.71;103174.53;5035686;28;20094;-77
2022/01/17 06:48:43;;;;;;;19.00;11.27;;;;;;;1.64;97.45;103170.16;5034705;28;20027;-77
2022/01/17 06:51:09;;;;;;;19.88;11.23;;;;;;;1.66;97.17;103168.53;5030090;28;21668;-76
2022/01/17 06:53:34;;;;;;;21.20;12.95;;;;;;;1.65;97.35;103176.22;5015372;28;20128;-76
2022/01/17 06:56:00;;;;;;;30.70;14.60;;;;;;;1.70;97.48;103188.63;5018735;28;20390;-77
2022/01/17 06:58:27;;;;;;;29.85;15.07;;;;;;;1.71;97.41;103203.34;5012821;28;20036;-77
2022/01/17 07:00:53;;;;;;;45.55;15.93;;;;;;;1.75;97.49;103209.59;5015073;28;20056;-76
2022/01/17 07:03:19;;;;;;;23.27;14.70;;;;;;;1.82;97.84;103205.69;5052782;28;20053;-76
2022/01/17 07:05:44;;;;;;;27.77;14.48;;;;;;;1.86;97.89;103205.09;5029207;28;20056;-76
2022/01/17 07:08:10;;;;;;;28.58;15.85;;;;;;;1.92;98.75;103223.56;5026025;28;20025;-77
2022/01/17 07:10:35;;;;;;;31.20;15.27;;;;;;;1.90;97.85;103226.06;4999616;28;20119;-77
2022/01/17 07:13:00;;;;;;;26.55;15.05;;;;;;;1.89;98.58;103206.16;5001759;28;20060;-76
2022/01/17 07:15:26;;;;;;;27.52;14.23;;;;;;;1.94;98.25;103198.72;5014935;28;20069;-76
2022/01/17 07:17:53;;;;;;;29.83;15.55;;;;;;;1.94;98.31;103190.03;5035543;28;20039;-77
2022/01/17 07:20:18;;;;;;;22.27;13.82;;;;;;;1.91;98.33;103177.81;5034359;28;20033;-76
2022/01/17 07:22:44;;;;;;;30.30;14.63;;;;;;;1.94;98.60;103172.84;5033532;28;20047;-76
2022/01/17 07:25:10;;;;;;;26.63;14.73;;;;;;;1.93;98.59;103171.06;5032340;28;20635;-76
2022/01/17 07:27:36;;;;;;;23.00;16.02;;;;;;;1.94;98.21;103172.84;5028770;28;20131;-77
2022/01/17 07:30:05;;;;;;;29.63;15.80;;;;;;;1.92;98.08;103182.19;5031359;28;20032;-76
2022/01/17 07:32:33;;;;;;;33.63;16.90;;;;;;;1.93;98.35;103190.88;5032665;28;20063;-76
2022/01/17 07:34:59;;;;;;;26.80;17.45;;;;;;;1.91;98.01;103185.56;5021506;28;20042;-76
2022/01/17 07:37:24;;;;;;;32.08;18.00;;;;;;;1.93;98.09;103199.50;5012207;28;20037;-76
2022/01/17 07:39:50;;;;;;;34.10;19.00;;;;;;;1.95;98.13;103203.06;5013196;28;20033;-76
2022/01/17 07:42:15;;;;;;;34.47;16.67;;;;;;;1.94;98.67;103206.47;4999640;28;20056;-77
2022/01/17 07:44:43;;;;;;;31.60;18.50;;;;;;;1.95;98.33;103215.09;5017187;28;20453;-76
2022/01/17 07:47:16;;;;;;;30.85;17.63;;;;;;;1.93;98.23;103214.13;5016583;28;20048;-76
2022/01/17 07:49:42;;;;;;;26.45;18.13;;;;;;;1.94;98.20;103214.22;5019566;28;20182;-76
2022/01/17 07:52:10;;;;;;;35.33;19.33;;;;;;;1.97;97.86;103218.66;5017411;28;20409;-76
2022/01/17 07:54:37;;;;;;;30.60;20.92;;;;;;;2.02;98.62;103225.03;5033798;28;20036;-76
2022/01/17 07:57:04;;;;;;;26.65;18.58;;;;;;;2.03;97.85;103227.72;5000588;28;20464;-76
2022/01/17 07:59:30;;;;;;;36.85;19.92;;;;;;;2.08;98.16;103231.50;5016662;28;20134;-76
2022/01/17 08:01:56;;;;;;;33.72;19.17;;;;;;;2.11;98.68;103229.88;5030871;28;20035;-76
2022/01/17 08:04:22;;;;;;;34.13;19.92;;;;;;;2.15;98.74;103240.50;5032425;28;20454;-76
2022/01/17 08:06:49;;;;;;;32.97;21.00;;;;;;;2.19;98.12;103249.34;5001281;28;20095;-76
2022/01/17 08:09:21;;;;;;;24.42;18.38;;;;;;;2.21;98.17;103240.91;5032442;28;20052;-76
2022/01/17 08:11:49;;;;;;;27.90;19.15;;;;;;;2.22;98.00;103234.03;5030031;28;20041;-76
2022/01/17 08:14:15;;;;;;;36.33;17.77;;;;;;;2.24;98.08;103237.56;5016754;28;20171;-77
2022/01/17 08:16:43;;;;;;;28.63;20.15;;;;;;;2.33;98.43;103238.16;5011984;28;20037;-76
2022/01/17 08:19:08;;;;;;;28.65;18.98;;;;;;;2.50;97.78;103246.03;5028697;28;20036;-76
2022/01/17 08:21:36;;;;;;;35.00;20.05;;;;;;;2.63;98.35;103243.41;5012797;28;20033;-76
2022/01/17 08:24:04;;;;;;;34.17;19.23;;;;;;;2.78;98.59;103254.63;5005710;28;20048;-76
2022/01/17 08:26:29;;;;;;;33.22;19.63;;;;;;;2.89;98.11;103251.81;5017310;28;20025;-76
2022/01/17 08:28:56;;;;;;;33.13;19.15;;;;;;;2.93;98.27;103244.31;4998562;28;20765;-76
2022/01/17 08:31:21;;;;;;;33.65;19.38;;;;;;;2.99;98.14;103254.13;4998943;28;20059;-76
2022/01/17 08:33:47;;;;;;;25.83;18.60;;;;;;;3.04;98.22;103260.44;5016324;28;20544;-76
2022/01/17 08:36:19;;;;;;;29.73;20.48;;;;;;;3.09;98.37;103260.75;5016729;28;20036;-77
2022/01/17 08:38:46;;;;;;;29.23;18.50;;;;;;;3.12;97.99;103254.03;5001855;28;20025;-76
2022/01/17 08:41:12;;;;;;;42.08;21.83;;;;;;;3.16;98.13;103247.34;5026491;28;20025;-76
2022/01/17 08:43:37;;;;;;;36.58;20.42;;;;;;;3.19;97.86;103229.38;4996517;28;20497;-76
2022/01/17 08:46:03;;;;;;;31.42;20.45;;;;;;;3.22;97.45;103224.34;5027971;28;20068;-75
2022/01/17 08:48:29;;;;;;;34.30;20.45;;;;;;;3.28;97.82;103236.78;5013733;28;20040;-76
2022/01/17 08:50:57;;;;;;;40.63;20.25;;;;;;;3.32;97.96;103236.16;5029107;28;20048;-76
2022/01/17 08:53:22;;;;;;;43.47;21.48;;;;;;;3.34;98.04;103237.09;5028263;28;20035;-76
2022/01/17 08:55:47;;;;;;;35.20;21.33;;;;;;;3.38;97.98;103243.38;5013952;28;20421;-76
2022/01/17 08:58:14;;;;;;;36.95;20.50;;;;;;;3.43;97.61;103241.91;5011886;28;20390;-76
2022/01/17 09:00:43;;;;;;;30.92;19.50;;;;;;;3.44;97.85;103249.78;5028886;28;20037;-75
2022/01/17 09:03:10;;;;;;;37.42;20.30;;;;;;;3.47;97.66;103249.94;5049228;28;20489;-76
2022/01/17 09:05:36;;;;;;;31.80;18.83;;;;;;;3.54;97.34;103260.69;5012392;28;20039;-76
2022/01/17 09:08:09;;;;;;;30.65;18.80;;;;;;;3.55;97.51;103252.06;5016679;28;20033;-76
2022/01/17 09:10:36;;;;;;;37.25;19.50;;;;;;;3.60;97.75;103253.22;5010074;28;20120;-76
2022/01/17 09:13:02;;;;;;;27.65;18.75;;;;;;;3.64;97.56;103262.97;5015957;28;20375;-77
2022/01/17 09:15:27;;;;;;;37.58;20.13;;;;;;;3.68;97.84;103262.34;5011121;28;20028;-77
2022/01/17 09:17:53;;;;;;;36.58;19.83;;;;;;;3.74;97.71;103259.19;5009761;28;20025;-77
2022/01/17 09:20:21;;;;;;;30.33;20.13;;;;;;;3.80;97.41;103275.97;5011821;28;20029;-76
2022/01/17 09:22:58;;;;;;;44.92;20.25;;;;;;;3.89;97.50;103285.06;5010660;28;20036;-76
2022/01/17 09:25:23;;;;;;;31.85;18.80;;;;;;;4.10;97.48;103296.63;5015963;28;20110;-76
2022/01/17 09:27:52;;;;;;;33.92;20.73;;;;;;;4.39;97.85;103297.31;5030319;28;20036;-76
2022/01/17 09:30:18;;;;;;;34.80;21.17;;;;;;;4.57;97.87;103294.78;5011092;28;20033;-76
2022/01/17 09:32:46;;;;;;;35.25;21.02;;;;;;;4.65;96.59;103297.78;5028491;28;20043;-76
2022/01/17 09:35:12;;;;;;;28.38;18.52;;;;;;;4.65;95.88;103292.59;5032828;28;20519;-76
2022/01/17 09:37:40;;;;;;;37.58;18.08;;;;;;;4.63;95.50;103289.91;5034505;28;20053;-76
2022/01/17 09:40:07;;;;;;;35.63;19.65;;;;;;;4.59;94.88;103276.69;5013069;28;20049;-77
2022/01/17 09:42:36;;;;;;;39.22;18.90;;;;;;;4.58;94.86;103280.09;5032658;28;20040;-77
2022/01/17 09:45:12;;;;;;;32.10;18.05;;;;;;;4.57;94.18;103291.28;5031363;28;20355;-77
2022/01/17 09:47:41;;;;;;;30.23;18.83;;;;;;;4.57;94.58;103304.28;5055968;28;20024;-76
2022/01/17 09:50:11;;;;;;;28.77;16.35;;;;;;;4.58;94.64;103303.47;5012457;28;20135;-77
2022/01/17 09:52:44;;;;;;;33.60;17.05;;;;;;;4.57;94.93;103315.56;5029721;28;20032;-76
2022/01/17 09:55:13;;;;;;;27.30;17.17;;;;;;;4.58;94.59;103325.13;5032804;28;20032;-76
2022/01/17 09:58:06;;;;;;;35.50;16.55;;;;;;;4.59;94.21;103313.94;5047646;28;20028;-76
2022/01/17 10:00:37;;;;;;;25.02;15.40;;;;;;;4.58;94.54;103332.91;5027184;28;20056;-76
2022/01/17 10:03:05;;;;;;;33.65;16.80;;;;;;;4.60;94.39;103346.00;5031761;28;20086;-76
2022/01/17 10:05:34;;;;;;;31.45;16.48;;;;;;;4.60;94.42;103330.44;5032957;28;20858;-76
2022/01/17 10:08:05;;;;;;;39.22;17.10;;;;;;;4.60;94.35;103331.31;5031347;28;20033;-72
2022/01/17 10:10:45;;;;;;;32.90;15.32;;;;;;;4.62;94.39;103336.59;5029182;28;20138;-73
2022/01/17 10:13:10;;;;;;;27.20;15.40;;;;;;;4.63;94.46;103315.88;5026076;28;20385;-72
2022/01/17 10:15:45;;;;;;;35.00;15.13;;;;;;;4.64;94.07;103333.25;5028698;28;20091;-72
2022/01/17 10:18:31;;;;;;;31.30;13.45;;;;;;;4.67;94.18;103332.53;5012169;28;20030;-72
2022/01/17 10:21:07;;;;;;;29.38;14.35;;;;;;;4.72;94.43;103337.97;5039831;28;20025;-71
2022/01/17 10:24:00;;;;;;;25.98;12.30;;;;;;;4.72;94.47;103328.47;5031765;28;20051;-72
2022/01/17 10:35:26;;;;;;;40.22;13.25;;;;;;;4.84;94.17;103339.50;5048799;28;20656;-71
2022/01/17 10:38:00;;;;;;;22.98;11.95;;;;;;;4.86;94.27;103350.84;5028966;28;20016;-71
2022/01/17 10:40:28;;;;;;;22.80;12.40;;;;;;;4.88;93.94;103345.72;5028468;28;20115;-72
2022/01/17 10:42:55;;;;;;;22.80;10.70;;;;;;;4.93;93.81;103351.16;5047170;28;20025;-71
2022/01/17 10:45:28;;;;;;;34.25;11.85;;;;;;;4.99;93.94;103354.09;5008783;28;20036;-72
2022/01/17 10:47:58;;;;;;;27.70;10.98;;;;;;;5.06;94.04;103358.81;5029528;28;20048;-72
2022/01/17 10:50:39;;;;;;;34.97;10.90;;;;;;;5.11;93.54;103344.31;5029060;28;20125;-72
2022/01/17 10:53:11;;;;;;;27.20;10.13;;;;;;;5.15;93.07;103343.66;5027481;28;20052;-72
2022/01/17 10:55:48;;;;;;;26.45;9.20;;;;;;;5.16;92.77;103350.66;5032442;28;20510;-72
2022/01/17 10:58:31;;;;;;;33.90;10.13;;;;;;;5.19;92.55;103353.41;5031155;28;20037;-72
2022/01/17 11:01:04;;;;;;;38.05;11.02;;;;;;;5.23;92.69;103362.28;5027474;28;20079;-73
2022/01/17 11:03:34;;;;;;;28.02;10.15;;;;;;;5.28;92.60;103367.69;5025393;28;20099;-72
2022/01/17 11:06:05;;;;;;;27.90;9.97;;;;;;;5.33;93.25;103379.19;5013548;28;20033;-70
2022/01/17 11:08:34;;;;;;;21.08;10.00;;;;;;;5.33;92.86;103368.78;5031452;28;20417;-71
2022/01/17 11:11:05;;;;;;;23.67;9.35;;;;;;;5.37;92.59;103381.16;5031154;28;20060;-71
2022/01/17 11:13:33;;;;;;;27.35;8.05;;;;;;;5.40;92.37;103386.50;5029201;28;20055;-72
2022/01/17 11:16:04;;;;;;;31.48;8.48;;;;;;;5.43;92.32;103380.56;5030286;28;20040;-71
2022/01/17 11:18:31;;;;;;;27.90;8.52;;;;;;;5.45;92.04;103374.63;5031929;28;20116;-76
2022/01/17 11:21:05;;;;;;;26.50;7.95;;;;;;;5.52;92.91;103386.25;5028924;28;20057;-75
2022/01/17 11:23:32;;;;;;;24.50;7.93;;;;;;;5.52;92.02;103373.25;5044085;28;20016;-74
2022/01/17 11:25:57;;;;;;;22.98;7.30;;;;;;;5.55;91.74;103363.88;5010911;28;20046;-71
2022/01/17 11:28:28;;;;;;;16.27;6.97;;;;;;;5.60;91.50;103369.28;5010345;28;20032;-71
2022/01/17 11:30:58;;;;;;;23.60;8.13;;;;;;;5.64;91.67;103352.13;5030714;28;20033;-72
2022/01/17 11:33:25;;;;;;;27.35;7.75;;;;;;;5.68;91.31;103359.28;5031184;28;20021;-71
2022/01/17 11:35:54;;;;;;;34.60;7.57;;;;;;;5.68;91.39;103349.75;5017229;28;20508;-71
2022/01/17 11:38:33;;;;;;;20.55;7.10;;;;;;;5.72;90.90;103356.88;5032943;28;20029;-71
2022/01/17 11:41:00;;;;;;;29.33;7.72;;;;;;;5.73;90.74;103349.97;5033511;28;20099;-71
2022/01/17 11:43:33;;;;;;;30.13;7.32;;;;;;;5.75;90.09;103363.03;5018132;28;20578;-71
2022/01/17 11:46:22;;;;;;;27.92;7.05;;;;;;;5.76;90.84;103368.34;5029217;28;20024;-71
2022/01/17 11:48:59;;;;;;;25.90;8.40;;;;;;;5.78;90.79;103371.03;5033881;28;20123;-71